createdAt,value
2022-10-08T00:02:17.760Z,57.10
2022-10-08T00:04:49.598Z,55.20
2022-10-08T00:07:21.303Z,37.80
2022-10-08T00:09:53.193Z,55.80
2022-10-08T00:12:24.897Z,57.60
2022-10-08T00:14:56.992Z,54.00
2022-10-08T00:17:29.355Z,56.70
2022-10-08T00:20:01.457Z,55.40
2022-10-08T00:22:33.280Z,57.70
2022-10-08T00:25:05.116Z,60.20
2022-10-08T00:27:36.722Z,56.10
2022-10-08T00:30:10.557Z,55.40
2022-10-08T00:32:42.372Z,55.20
2022-10-08T00:35:14.376Z,55.20
2022-10-08T00:37:46.003Z,57.50
2022-10-08T00:40:18.128Z,56.40
2022-10-08T00:42:49.989Z,38.90
2022-10-08T00:45:22.183Z,55.40
2022-10-08T00:47:56.324Z,58.20
2022-10-08T00:50:34.311Z,55.10
2022-10-08T00:53:08.760Z,53.20
2022-10-08T00:55:44.087Z,52.90
2022-10-08T00:58:22.869Z,59.30
2022-10-08T01:00:54.566Z,55.50
2022-10-08T01:03:26.319Z,61.30
2022-10-08T01:06:10.310Z,55.50
2022-10-08T01:08:48.366Z,58.30
2022-10-08T01:11:32.408Z,59.50
2022-10-08T01:14:13.286Z,54.10
2022-10-08T01:16:54.267Z,54.20
2022-10-08T01:19:43.578Z,55.80
2022-10-08T01:22:27.575Z,49.10
2022-10-08T01:25:20.851Z,55.80
2022-10-08T01:28:01.753Z,51.50
2022-10-08T01:30:36.487Z,56.70
2022-10-08T01:33:15.081Z,55.40
2022-10-08T01:35:50.639Z,54.70
2022-10-08T01:38:25.127Z,55.70
2022-10-08T01:41:00.306Z,52.30
2022-10-08T01:43:36.500Z,58.30
2022-10-08T01:46:13.086Z,53.50
2022-10-08T01:48:48.321Z,66.70
2022-10-08T01:51:23.942Z,51.50
2022-10-08T01:53:56.043Z,53.80
2022-10-08T01:56:33.055Z,55.30
2022-10-08T01:59:09.293Z,51.30
2022-10-08T02:01:49.924Z,56.40
2022-10-08T02:04:34.677Z,57.00
2022-10-08T02:07:10.339Z,55.60
2022-10-08T02:09:44.797Z,59.70
2022-10-08T02:12:16.556Z,57.50
2022-10-08T02:14:51.997Z,58.70
2022-10-08T02:17:30.739Z,55.60
2022-10-08T02:20:08.486Z,56.50
2022-10-08T02:22:45.877Z,56.50
2022-10-08T02:25:25.797Z,57.20
2022-10-08T02:28:10.327Z,54.70
2022-10-08T02:30:47.917Z,58.60
2022-10-08T02:33:27.259Z,61.80
2022-10-08T02:36:01.462Z,59.20
2022-10-08T02:38:38.456Z,58.80
2022-10-08T02:41:12.663Z,61.70
2022-10-08T02:43:48.137Z,58.80
2022-10-08T02:46:22.471Z,61.30
2022-10-08T02:48:59.473Z,56.30
2022-10-08T02:51:32.241Z,63.30
2022-10-08T02:56:41.622Z,64.50
2022-10-08T02:59:13.991Z,63.30
2022-10-08T03:01:50.631Z,60.30
2022-10-08T03:04:28.640Z,71.30
2022-10-08T03:07:01.376Z,66.50
2022-10-08T03:09:37.568Z,71.50
2022-10-08T03:12:09.860Z,64.80
2022-10-08T03:14:44.577Z,67.30
2022-10-08T03:17:20.101Z,58.80
2022-10-08T03:19:51.967Z,64.20
2022-10-08T03:22:24.192Z,76.80
2022-10-08T03:24:56.914Z,71.30
2022-10-08T03:27:29.113Z,69.20
2022-10-08T03:30:00.788Z,70.60
2022-10-08T03:32:32.629Z,64.30
2022-10-08T03:35:04.360Z,70.90
2022-10-08T03:37:36.069Z,71.40
2022-10-08T03:40:10.702Z,68.80
2022-10-08T03:42:42.393Z,64.60
2022-10-08T03:45:14.158Z,67.20
2022-10-08T03:47:50.665Z,72.80
2022-10-08T03:50:23.403Z,66.20
2022-10-08T03:55:25.421Z,68.80
2022-10-08T03:57:57.213Z,69.80
2022-10-08T04:00:29.242Z,65.10
2022-10-08T04:03:00.935Z,75.70
2022-10-08T04:05:32.811Z,68.10
2022-10-08T04:08:04.644Z,70.60
2022-10-08T04:10:40.210Z,65.60
2022-10-08T04:13:11.907Z,68.20
2022-10-08T04:15:43.781Z,71.10
2022-10-08T04:18:15.950Z,72.90
2022-10-08T04:20:47.681Z,69.10
2022-10-08T04:23:19.514Z,45.50
2022-10-08T04:25:55.039Z,69.30
2022-10-08T04:28:26.818Z,73.90
2022-10-08T04:31:00.626Z,64.50
2022-10-08T04:33:34.697Z,70.60
2022-10-08T04:36:10.713Z,68.00
2022-10-08T04:38:44.384Z,63.50
2022-10-08T04:41:18.049Z,59.10
2022-10-08T04:43:50.467Z,65.20
2022-10-08T04:46:23.515Z,67.40
2022-10-08T04:48:56.432Z,58.40
2022-10-08T04:51:29.283Z,63.30
2022-10-08T04:54:01.729Z,61.60
2022-10-08T04:56:36.562Z,63.00
2022-10-08T04:59:08.502Z,72.20
2022-10-08T05:01:40.403Z,66.30
2022-10-08T05:04:12.126Z,65.40
2022-10-08T05:06:43.809Z,65.50
2022-10-08T05:09:15.516Z,67.50
2022-10-08T05:11:47.287Z,64.70
2022-10-08T05:14:19.029Z,52.80
2022-10-08T05:16:50.715Z,61.10
2022-10-08T05:19:22.321Z,59.00
2022-10-08T05:21:54.357Z,54.20
2022-10-08T05:24:26.371Z,65.40
2022-10-08T05:26:59.189Z,55.30
2022-10-08T05:29:32.632Z,52.70
2022-10-08T05:32:04.797Z,52.20
2022-10-08T05:34:36.539Z,53.90
2022-10-08T05:37:08.545Z,55.40
2022-10-08T05:39:40.463Z,55.80
2022-10-08T05:42:12.711Z,56.30
2022-10-08T05:44:45.555Z,50.50
2022-10-08T05:47:17.384Z,51.10
2022-10-08T05:49:49.034Z,56.50
2022-10-08T05:52:21.166Z,57.70
2022-10-08T05:54:52.859Z,59.80
2022-10-08T05:57:24.793Z,58.40
2022-10-08T05:59:56.665Z,59.20
2022-10-08T06:02:28.466Z,47.70
2022-10-08T06:05:00.363Z,50.60
2022-10-08T06:07:32.236Z,47.50
2022-10-08T06:10:04.846Z,50.00
2022-10-08T06:12:37.543Z,50.50
2022-10-08T06:15:10.591Z,51.20
2022-10-08T06:17:43.647Z,49.70
2022-10-08T06:20:16.125Z,57.70
2022-10-08T06:22:48.141Z,50.90
2022-10-08T06:25:20.738Z,49.20
2022-10-08T06:27:52.644Z,59.60
2022-10-08T06:30:24.615Z,52.30
2022-10-08T06:32:56.407Z,36.20
2022-10-08T06:35:28.149Z,51.20
2022-10-08T06:37:59.924Z,58.70
2022-10-08T06:40:39.023Z,38.90
2022-10-08T06:43:15.648Z,56.70
2022-10-08T06:45:48.691Z,57.30
2022-10-08T06:48:20.889Z,72.90
2022-10-08T06:51:01.093Z,45.10
2022-10-08T06:53:34.318Z,53.80
2022-10-08T06:56:10.765Z,52.00
2022-10-08T06:58:44.813Z,52.50
2022-10-08T07:01:19.926Z,50.40
2022-10-08T07:03:54.313Z,42.10
2022-10-08T07:06:27.444Z,44.20
2022-10-08T07:09:01.066Z,48.10
2022-10-08T07:11:35.083Z,38.00
2022-10-08T07:14:07.084Z,39.20
2022-10-08T07:16:38.939Z,37.70
2022-10-08T07:19:11.209Z,34.10
2022-10-08T07:21:43.227Z,45.10
2022-10-08T07:24:15.312Z,42.30
2022-10-08T07:26:48.609Z,44.10
2022-10-08T07:29:21.638Z,39.20
2022-10-08T07:31:53.975Z,36.90
2022-10-08T07:34:25.890Z,41.20
2022-10-08T07:36:57.661Z,37.60
2022-10-08T07:39:29.398Z,39.50
2022-10-08T07:42:01.300Z,40.40
2022-10-08T07:44:33.284Z,35.90
2022-10-08T07:47:05.106Z,31.80
2022-10-08T07:49:36.969Z,38.40
2022-10-08T07:52:09.221Z,33.50
2022-10-08T07:54:42.615Z,38.30
2022-10-08T07:57:14.232Z,29.50
2022-10-08T07:59:46.221Z,34.40
2022-10-08T08:02:18.357Z,36.80
2022-10-08T08:04:50.320Z,39.00
2022-10-08T08:07:22.133Z,31.40
2022-10-08T08:09:53.855Z,33.60
2022-10-08T08:12:26.113Z,27.10
2022-10-08T08:14:58.024Z,28.30
2022-10-08T08:17:29.706Z,36.00
2022-10-08T08:20:01.356Z,31.10
2022-10-08T08:22:33.033Z,31.20
2022-10-08T08:25:05.112Z,34.40
2022-10-08T08:27:37.464Z,30.40
2022-10-08T08:30:11.101Z,29.30
2022-10-08T08:32:43.415Z,29.10
2022-10-08T08:35:15.228Z,32.70
2022-10-08T08:37:46.748Z,34.30
2022-10-08T08:40:18.422Z,29.70
2022-10-08T08:42:54.874Z,29.20
2022-10-08T08:45:47.464Z,27.30
2022-10-08T08:48:23.878Z,40.40
2022-10-08T08:50:58.700Z,29.00
2022-10-08T08:53:30.847Z,32.90
2022-10-08T08:56:06.778Z,23.90
2022-10-08T08:58:43.641Z,28.60
2022-10-08T09:01:23.714Z,26.90
2022-10-08T09:03:59.896Z,25.60
2022-10-08T09:06:33.487Z,29.80
2022-10-08T09:09:16.663Z,32.80
2022-10-08T09:14:34.212Z,29.00
2022-10-08T09:17:15.312Z,28.80
2022-10-08T09:19:49.715Z,30.80
2022-10-08T09:22:26.067Z,25.60
2022-10-08T09:25:01.822Z,26.00
2022-10-08T09:27:49.610Z,28.40
2022-10-08T09:30:45.206Z,27.10
2022-10-08T09:33:32.008Z,30.40
2022-10-08T09:36:04.285Z,27.60
2022-10-08T09:38:39.592Z,22.50
2022-10-08T09:41:20.756Z,25.50
2022-10-08T09:44:12.332Z,21.70
2022-10-08T09:46:44.707Z,20.80
2022-10-08T09:49:32.268Z,22.90
2022-10-08T09:52:08.403Z,24.10
2022-10-08T09:54:48.706Z,22.00
2022-10-08T09:57:22.791Z,16.40
2022-10-08T09:59:57.691Z,13.90
2022-10-08T10:02:34.207Z,21.30
2022-10-08T10:05:09.048Z,17.80
2022-10-08T10:07:43.956Z,12.90
2022-10-08T10:10:25.358Z,20.20
2022-10-08T10:13:02.110Z,17.10
2022-10-08T10:15:38.443Z,13.60
2022-10-08T10:18:16.061Z,15.90
2022-10-08T10:20:52.047Z,17.10
2022-10-08T10:23:27.110Z,15.70
2022-10-08T10:26:06.315Z,14.20
2022-10-08T10:28:46.107Z,16.30
2022-10-08T10:31:23.504Z,16.60
2022-10-08T10:34:00.304Z,16.70
2022-10-08T10:36:36.581Z,16.30
2022-10-08T10:39:19.845Z,12.90
2022-10-08T10:42:00.002Z,15.80
2022-10-08T10:44:38.336Z,13.20
2022-10-08T10:47:11.117Z,13.20
2022-10-08T10:49:44.806Z,15.10
2022-10-08T10:52:42.708Z,19.90
2022-10-08T10:55:28.629Z,17.10
2022-10-08T10:58:22.438Z,14.00
2022-10-08T11:01:03.641Z,16.30
2022-10-08T11:03:45.526Z,11.30
2022-10-08T11:06:48.789Z,18.30
2022-10-08T11:09:29.296Z,11.70
2022-10-08T11:12:07.601Z,15.10
2022-10-08T11:14:48.207Z,12.90
2022-10-08T11:17:36.048Z,15.20
2022-10-08T11:20:25.951Z,11.90
2022-10-08T11:23:04.324Z,12.00
2022-10-08T11:26:10.831Z,16.50
2022-10-08T11:28:49.337Z,12.50
2022-10-08T11:31:29.655Z,16.10
2022-10-08T11:34:03.614Z,14.80
2022-10-08T11:36:48.259Z,16.10
2022-10-08T11:39:28.983Z,17.00
2022-10-08T11:42:10.845Z,14.20
2022-10-08T11:44:43.153Z,13.40
2022-10-08T11:47:48.360Z,14.90
2022-10-08T11:50:29.461Z,13.10
2022-10-08T11:53:14.903Z,16.00
2022-10-08T11:55:54.632Z,9.80
2022-10-08T11:58:31.300Z,14.80
2022-10-08T12:01:08.447Z,17.90
2022-10-08T12:03:46.211Z,12.20
2022-10-08T12:06:20.276Z,17.70
2022-10-08T12:08:55.006Z,18.50
2022-10-08T12:11:51.488Z,13.40
2022-10-08T12:14:45.601Z,15.80
2022-10-08T12:17:18.050Z,14.20
2022-10-08T12:20:21.729Z,18.00
2022-10-08T12:23:07.702Z,11.10
2022-10-08T12:26:03.414Z,10.60
2022-10-08T12:28:50.364Z,13.40
2022-10-08T12:31:28.858Z,14.60
2022-10-08T12:34:14.202Z,18.90
2022-10-08T12:37:06.941Z,13.80
2022-10-08T12:39:45.644Z,13.30
2022-10-08T12:42:23.787Z,13.00
2022-10-08T12:45:09.760Z,14.40
2022-10-08T12:47:50.417Z,12.20
2022-10-08T12:50:36.080Z,11.80
2022-10-08T12:53:09.224Z,18.00
2022-10-08T12:55:49.908Z,10.90
2022-10-08T12:58:25.916Z,11.20
2022-10-08T13:01:01.694Z,18.40
2022-10-08T13:03:33.582Z,12.00
2022-10-08T13:06:31.599Z,12.70
2022-10-08T13:09:20.572Z,10.80
2022-10-08T13:11:56.267Z,13.80
2022-10-08T13:14:31.450Z,13.20
2022-10-08T13:17:06.828Z,12.90
2022-10-08T13:19:40.779Z,10.80
2022-10-08T13:22:27.500Z,17.20
2022-10-08T13:24:59.191Z,10.00
2022-10-08T13:27:32.918Z,13.40
2022-10-08T13:30:30.088Z,12.00
2022-10-08T13:33:07.338Z,9.80
2022-10-08T13:35:39.454Z,14.40
2022-10-08T13:38:20.366Z,14.60
2022-10-08T13:40:55.361Z,11.70
2022-10-08T13:43:28.990Z,11.50
2022-10-08T13:46:00.803Z,13.80
2022-10-08T13:48:32.610Z,12.70
2022-10-08T13:51:06.514Z,13.00
2022-10-08T13:53:42.224Z,13.40
2022-10-08T13:56:15.441Z,11.60
2022-10-08T13:58:47.203Z,19.20
2022-10-08T14:01:19.022Z,16.70
2022-10-08T14:03:50.685Z,5.90
2022-10-08T14:06:22.385Z,11.60
2022-10-08T14:08:54.497Z,12.40
2022-10-08T14:11:27.022Z,12.00
2022-10-08T14:13:58.796Z,12.10
2022-10-08T14:16:30.768Z,13.20
2022-10-08T14:19:04.361Z,12.30
2022-10-08T14:21:38.487Z,12.20
2022-10-08T14:26:41.232Z,7.90
2022-10-08T14:29:14.049Z,17.60
2022-10-08T14:34:17.481Z,12.30
2022-10-08T14:36:50.150Z,8.00
2022-10-08T14:41:52.613Z,20.20
2022-10-08T14:44:25.269Z,7.50
2022-10-08T14:46:56.919Z,7.90
2022-10-08T14:49:29.007Z,15.30
2022-10-08T14:52:01.533Z,9.90
2022-10-08T14:54:33.161Z,9.70
2022-10-08T14:57:05.152Z,11.20
2022-10-08T14:59:40.033Z,8.80
2022-10-08T15:02:13.569Z,9.90
2022-10-08T15:04:45.358Z,13.70
2022-10-08T15:07:17.126Z,10.90
2022-10-08T15:09:48.853Z,11.30
2022-10-08T15:12:20.460Z,7.40
2022-10-08T15:14:52.436Z,5.60
2022-10-08T15:17:24.315Z,9.20
2022-10-08T15:19:57.714Z,9.60
2022-10-08T15:22:29.424Z,10.90
2022-10-08T15:25:01.111Z,7.40
2022-10-08T15:27:33.403Z,7.90
2022-10-08T15:30:05.634Z,11.90
2022-10-08T15:32:39.180Z,8.70
2022-10-08T15:35:11.912Z,10.60
2022-10-08T15:37:44.082Z,11.90
2022-10-08T15:40:16.678Z,5.90
2022-10-08T15:45:24.315Z,7.20
2022-10-08T15:47:56.061Z,7.10
2022-10-08T15:50:27.853Z,10.60
2022-10-08T15:53:01.052Z,10.60
2022-10-08T15:55:32.742Z,12.50
2022-10-08T15:58:04.519Z,10.30
2022-10-08T16:00:38.184Z,5.90
2022-10-08T16:03:10.016Z,13.00
2022-10-08T16:05:41.976Z,11.40
2022-10-08T16:08:13.673Z,8.50
2022-10-08T16:10:45.509Z,12.80
2022-10-08T16:13:17.391Z,12.10
2022-10-08T16:15:49.098Z,11.10
2022-10-08T16:18:21.521Z,10.20
2022-10-08T16:20:55.115Z,11.90
2022-10-08T16:23:26.935Z,11.60
2022-10-08T16:25:59.770Z,11.20
2022-10-08T16:28:34.189Z,11.90
2022-10-08T16:31:07.094Z,13.20
2022-10-08T16:33:39.464Z,9.10
2022-10-08T16:36:12.940Z,10.00
2022-10-08T16:38:45.120Z,13.80
2022-10-08T16:41:19.378Z,11.70
2022-10-08T16:43:53.289Z,16.50
2022-10-08T16:46:27.695Z,15.90
2022-10-08T16:49:01.702Z,12.00
2022-10-08T16:51:35.534Z,14.50
2022-10-08T16:54:10.251Z,16.10
2022-10-08T16:56:44.573Z,18.40
2022-10-08T16:59:19.390Z,14.00
2022-10-08T17:01:54.408Z,17.30
2022-10-08T17:04:29.216Z,13.20
2022-10-08T17:07:03.977Z,22.90
2022-10-08T17:09:36.077Z,17.10
2022-10-08T17:12:07.812Z,14.70
2022-10-08T17:14:39.724Z,13.50
2022-10-08T17:17:11.912Z,13.90
2022-10-08T17:19:44.770Z,15.30
2022-10-08T17:24:49.162Z,15.00
2022-10-08T17:27:21.017Z,11.80
2022-10-08T17:29:52.833Z,23.30
2022-10-08T17:32:24.485Z,20.60
2022-10-08T17:34:56.141Z,20.20
2022-10-08T17:37:27.771Z,20.90
2022-10-08T17:39:59.572Z,20.00
2022-10-08T17:42:32.012Z,9.90
2022-10-08T17:45:03.631Z,22.10
2022-10-08T17:47:35.682Z,19.00
2022-10-08T17:50:09.199Z,16.30
2022-10-08T17:52:40.994Z,14.40
2022-10-08T17:55:16.902Z,15.20
2022-10-08T17:57:48.894Z,12.50
2022-10-08T18:00:20.978Z,20.70
2022-10-08T18:02:53.261Z,15.40
2022-10-08T18:05:25.149Z,17.60
2022-10-08T18:07:57.005Z,14.20
2022-10-08T18:10:28.922Z,17.70
2022-10-08T18:13:02.230Z,15.80
2022-10-08T18:15:37.326Z,14.50
2022-10-08T18:18:09.117Z,16.60
2022-10-08T18:20:41.585Z,14.60
2022-10-08T18:23:13.552Z,14.80
2022-10-08T18:25:45.242Z,17.30
2022-10-08T18:28:19.667Z,15.80
2022-10-08T18:30:51.532Z,20.40
2022-10-08T18:33:24.798Z,16.80
2022-10-08T18:35:56.780Z,16.60
2022-10-08T18:38:28.622Z,20.30
2022-10-08T18:41:00.330Z,11.90
2022-10-08T18:43:32.189Z,20.90
2022-10-08T18:46:06.398Z,21.40
2022-10-08T18:48:38.965Z,25.70
2022-10-08T18:51:13.565Z,20.60
2022-10-08T18:53:46.322Z,19.20
2022-10-08T18:58:53.196Z,15.90
2022-10-08T19:01:28.397Z,18.70
2022-10-08T19:04:03.851Z,22.10
2022-10-08T19:06:38.021Z,18.80
2022-10-08T19:09:10.489Z,17.00
2022-10-08T19:11:45.380Z,23.20
2022-10-08T19:14:19.229Z,16.50
2022-10-08T19:16:51.619Z,22.10
2022-10-08T19:19:27.432Z,19.50
2022-10-08T19:22:01.716Z,18.90
2022-10-08T19:24:37.319Z,19.90
2022-10-08T19:27:11.937Z,18.50
2022-10-08T19:29:43.800Z,19.60
2022-10-08T19:32:16.052Z,23.20
2022-10-08T19:34:47.789Z,18.00
2022-10-08T19:37:19.795Z,17.00
2022-10-08T19:39:52.906Z,24.20
2022-10-08T19:42:24.661Z,16.40
2022-10-08T19:44:56.360Z,19.30
2022-10-08T19:47:28.135Z,17.10
2022-10-08T19:49:59.803Z,15.60
2022-10-08T19:52:31.918Z,16.90
2022-10-08T19:55:03.862Z,12.90
2022-10-08T19:57:36.600Z,15.00
2022-10-08T20:02:40.437Z,12.80
2022-10-08T20:05:12.916Z,15.80
2022-10-08T20:07:45.767Z,12.10
2022-10-08T20:10:18.819Z,12.40
2022-10-08T20:12:51.722Z,15.20
2022-10-08T20:15:24.974Z,15.80
2022-10-08T20:17:57.694Z,12.80
2022-10-08T20:20:33.190Z,12.10
2022-10-08T20:23:07.205Z,15.00
2022-10-08T20:25:38.925Z,8.40
2022-10-08T20:28:10.989Z,9.70
2022-10-08T20:30:43.721Z,13.90
2022-10-08T20:35:46.782Z,6.70
2022-10-08T20:38:19.209Z,10.50
2022-10-08T20:40:56.274Z,8.70
2022-10-08T20:43:30.708Z,10.40
2022-10-08T20:46:06.663Z,8.10
2022-10-08T20:48:40.674Z,10.40
2022-10-08T20:51:15.572Z,11.00
2022-10-08T20:53:52.114Z,10.10
2022-10-08T20:56:25.207Z,15.90
2022-10-08T20:58:58.218Z,16.60
2022-10-08T21:04:03.326Z,17.50
2022-10-08T21:06:41.735Z,19.30
2022-10-08T21:09:15.261Z,18.80
2022-10-08T21:11:49.277Z,19.20
2022-10-08T21:14:24.128Z,27.90
2022-10-08T21:16:57.147Z,17.00
2022-10-08T21:19:29.611Z,20.40
2022-10-08T21:22:01.950Z,16.00
2022-10-08T21:27:06.706Z,20.00
2022-10-08T21:29:40.215Z,21.10
2022-10-08T21:32:13.737Z,20.70
2022-10-08T21:34:46.443Z,14.60
2022-10-08T21:37:18.828Z,15.80
2022-10-08T21:39:52.250Z,17.60
2022-10-08T21:42:24.378Z,15.70
2022-10-08T21:44:56.257Z,13.10
2022-10-08T21:47:28.841Z,16.20
2022-10-08T21:50:00.996Z,13.70
2022-10-08T21:52:33.105Z,22.20
2022-10-08T21:55:05.318Z,12.20
2022-10-08T21:57:38.376Z,10.20
2022-10-08T22:00:14.669Z,11.80
2022-10-08T22:02:47.401Z,10.90
2022-10-08T22:05:21.025Z,9.60
2022-10-08T22:07:53.527Z,9.60
2022-10-08T22:10:25.687Z,11.90
2022-10-08T22:12:57.611Z,8.20
2022-10-08T22:15:29.387Z,9.50
2022-10-08T22:18:01.149Z,13.40
2022-10-08T22:20:33.035Z,9.20
2022-10-08T22:23:04.708Z,11.70
2022-10-08T22:25:36.857Z,8.00
2022-10-08T22:28:09.115Z,7.40
2022-10-08T22:30:40.821Z,9.10
2022-10-08T22:33:12.453Z,11.70
2022-10-08T22:35:44.500Z,7.80
2022-10-08T22:38:16.380Z,11.10
2022-10-08T22:40:48.177Z,11.90
2022-10-08T22:43:19.948Z,11.20
2022-10-08T22:45:51.716Z,4.60
2022-10-08T22:48:24.233Z,6.70
2022-10-08T22:50:55.931Z,6.90
2022-10-08T22:53:27.670Z,8.50
2022-10-08T22:55:59.670Z,15.50
2022-10-08T22:58:31.987Z,10.90
2022-10-08T23:01:06.510Z,8.00
2022-10-08T23:03:38.525Z,8.50
2022-10-08T23:06:15.408Z,6.00
2022-10-08T23:08:48.575Z,7.80
2022-10-08T23:11:20.596Z,8.90
2022-10-08T23:13:57.804Z,16.10
2022-10-08T23:16:31.996Z,11.30
2022-10-08T23:19:06.104Z,15.10
2022-10-08T23:21:42.496Z,8.60
2022-10-08T23:24:16.217Z,9.20
2022-10-08T23:26:48.213Z,10.70
2022-10-08T23:29:20.270Z,10.00
2022-10-08T23:31:52.418Z,9.20
2022-10-08T23:34:25.535Z,11.50
2022-10-08T23:36:57.409Z,12.30
2022-10-08T23:39:29.751Z,18.70
2022-10-08T23:42:02.944Z,22.10
2022-10-08T23:44:36.041Z,24.70
2022-10-08T23:49:46.484Z,8.60
2022-10-08T23:52:19.609Z,7.70
2022-10-08T23:54:51.269Z,10.10
2022-10-08T23:57:23.016Z,10.60
2022-10-08T23:59:57.076Z,6.50
